createdAt,value
2018-09-24T00:00:03.954Z,13.40
2018-09-24T00:02:07.501Z,13.00
2018-09-24T00:04:11.059Z,12.20
2018-09-24T00:06:14.798Z,12.50
2018-09-24T00:08:18.310Z,12.10
2018-09-24T00:10:21.830Z,12.80
2018-09-24T00:12:25.432Z,13.40
2018-09-24T00:14:29.184Z,12.30
2018-09-24T00:16:32.811Z,13.00
2018-09-24T00:18:36.392Z,13.30
2018-09-24T00:20:40.104Z,13.90
2018-09-24T00:22:43.701Z,13.30
2018-09-24T00:24:47.219Z,13.70
2018-09-24T00:26:50.753Z,13.40
2018-09-24T00:28:54.431Z,13.70
2018-09-24T00:30:57.937Z,13.90
2018-09-24T00:33:01.494Z,14.00
2018-09-24T00:35:05.348Z,13.60
2018-09-24T00:37:08.961Z,13.00
2018-09-24T00:39:12.787Z,13.40
2018-09-24T00:41:16.259Z,13.30
2018-09-24T00:43:19.805Z,12.40
2018-09-24T00:45:23.311Z,12.70
2018-09-24T00:47:26.996Z,12.30
2018-09-24T00:49:30.503Z,12.50
2018-09-24T00:51:34.042Z,11.50
2018-09-24T00:53:37.723Z,11.60
2018-09-24T00:55:41.254Z,12.80
2018-09-24T00:57:44.874Z,13.20
2018-09-24T00:59:48.446Z,13.80
2018-09-24T01:01:51.967Z,13.80
2018-09-24T01:03:55.551Z,13.90
2018-09-24T01:05:59.200Z,13.50
2018-09-24T01:08:02.892Z,14.00
2018-09-24T01:10:06.710Z,14.00
2018-09-24T01:12:10.212Z,14.40
2018-09-24T01:14:13.859Z,13.80
2018-09-24T01:16:17.387Z,13.80
2018-09-24T01:18:20.897Z,13.40
2018-09-24T01:20:24.472Z,13.00
2018-09-24T01:22:27.995Z,12.70
2018-09-24T01:24:31.480Z,12.20
2018-09-24T01:26:35.153Z,12.00
2018-09-24T01:28:38.728Z,11.90
2018-09-24T01:30:42.234Z,11.60
2018-09-24T01:32:45.782Z,11.80
2018-09-24T01:34:55.814Z,10.90
2018-09-24T01:36:59.439Z,10.70
2018-09-24T01:39:03.037Z,11.20
2018-09-24T01:41:06.756Z,11.20
2018-09-24T01:43:10.320Z,11.10
2018-09-24T01:45:13.893Z,11.50
2018-09-24T01:47:17.466Z,11.90
2018-09-24T01:49:21.142Z,11.50
2018-09-24T01:51:33.502Z,11.20
2018-09-24T01:53:37.006Z,11.10
2018-09-24T01:55:40.508Z,11.10
2018-09-24T01:57:44.042Z,10.40
2018-09-24T01:59:52.820Z,10.90
2018-09-24T02:01:56.322Z,11.20
2018-09-24T02:03:59.907Z,11.60
2018-09-24T02:06:04.135Z,11.80
2018-09-24T02:08:07.607Z,11.40
2018-09-24T02:10:11.381Z,11.80
2018-09-24T02:12:14.916Z,12.20
2018-09-24T02:14:18.487Z,12.00
2018-09-24T02:16:22.111Z,12.60
2018-09-24T02:18:25.901Z,12.50
2018-09-24T02:20:29.496Z,12.50
2018-09-24T02:22:32.989Z,12.60
2018-09-24T02:24:36.525Z,12.10
2018-09-24T02:26:40.040Z,12.00
2018-09-24T02:28:43.728Z,11.30
2018-09-24T02:30:47.225Z,11.10
2018-09-24T02:32:50.860Z,11.40
2018-09-24T02:34:56.972Z,11.00
2018-09-24T02:37:00.517Z,10.70
2018-09-24T02:39:05.853Z,10.70
2018-09-24T02:41:09.683Z,10.80
2018-09-24T02:43:13.250Z,10.90
2018-09-24T02:45:16.793Z,11.60
2018-09-24T02:47:20.339Z,11.30
2018-09-24T02:49:23.914Z,11.30
2018-09-24T02:51:27.538Z,10.40
2018-09-24T02:53:40.999Z,10.40
2018-09-24T02:55:44.558Z,11.10
2018-09-24T02:57:48.052Z,10.90
2018-09-24T02:59:51.585Z,11.00
2018-09-24T03:01:55.103Z,11.40
2018-09-24T03:03:58.655Z,11.40
2018-09-24T03:06:02.341Z,11.00
2018-09-24T03:08:09.993Z,10.40
2018-09-24T03:10:13.557Z,10.60
2018-09-24T03:12:17.072Z,11.00
2018-09-24T03:14:24.844Z,10.60
2018-09-24T03:16:28.489Z,10.30
2018-09-24T03:18:32.043Z,10.40
2018-09-24T03:20:37.800Z,10.40
2018-09-24T03:22:41.331Z,9.50
2018-09-24T03:24:44.812Z,9.00
2018-09-24T03:26:48.483Z,8.90
2018-09-24T03:28:52.017Z,9.50
2018-09-24T03:30:55.546Z,9.50
2018-09-24T03:32:59.443Z,9.40
2018-09-24T03:35:03.053Z,9.70
2018-09-24T03:37:06.560Z,9.40
2018-09-24T03:39:10.062Z,10.00
2018-09-24T03:41:13.763Z,9.70
2018-09-24T03:43:17.360Z,9.70
2018-09-24T03:45:21.073Z,9.10
2018-09-24T03:47:24.627Z,9.00
2018-09-24T03:49:28.223Z,9.00
2018-09-24T03:51:31.951Z,9.00
2018-09-24T03:53:35.476Z,9.70
2018-09-24T03:55:39.098Z,9.80
2018-09-24T03:57:43.280Z,10.40
2018-09-24T03:59:46.833Z,10.20
2018-09-24T04:01:50.352Z,10.20
2018-09-24T04:06:51.053Z,10.50
2018-09-24T04:09:00.009Z,10.20
2018-09-24T04:11:08.939Z,9.70
2018-09-24T04:13:17.753Z,9.90
2018-09-24T04:15:26.572Z,9.70
2018-09-24T04:17:35.200Z,10.10
2018-09-24T04:19:44.077Z,10.10
2018-09-24T04:21:52.882Z,8.40
2018-09-24T04:24:01.672Z,9.90
2018-09-24T04:26:10.644Z,9.80
2018-09-24T04:28:19.327Z,10.20
2018-09-24T04:30:28.005Z,9.80
2018-09-24T04:32:36.819Z,9.90
2018-09-24T04:34:45.635Z,10.40
2018-09-24T04:36:54.312Z,11.70
2018-09-24T04:39:03.222Z,10.00
2018-09-24T04:41:12.127Z,10.10
2018-09-24T04:43:20.948Z,10.90
2018-09-24T04:45:29.836Z,10.70
2018-09-24T04:47:38.612Z,11.30
2018-09-24T04:49:47.580Z,11.40
2018-09-24T04:51:56.549Z,11.90
2018-09-24T04:54:05.343Z,12.00
2018-09-24T04:56:14.299Z,12.00
2018-09-24T04:58:23.219Z,12.20
2018-09-24T05:00:32.013Z,12.70
2018-09-24T05:02:40.808Z,12.90
2018-09-24T05:04:49.662Z,13.30
2018-09-24T05:06:58.452Z,13.50
2018-09-24T05:09:07.247Z,13.60
2018-09-24T05:11:16.103Z,13.30
2018-09-24T05:13:24.874Z,13.40
2018-09-24T05:15:33.804Z,13.10
2018-09-24T05:17:42.731Z,12.80
2018-09-24T05:19:51.612Z,12.60
2018-09-24T05:22:00.535Z,12.50
2018-09-24T05:24:09.359Z,12.50
2018-09-24T05:26:18.096Z,12.50
2018-09-24T05:28:27.021Z,12.90
2018-09-24T05:30:36.036Z,13.00
2018-09-24T05:32:45.033Z,13.40
2018-09-24T05:34:54.102Z,13.40
2018-09-24T05:37:02.716Z,13.60
2018-09-24T05:39:14.004Z,13.50
2018-09-24T05:41:22.976Z,13.70
2018-09-24T05:43:31.796Z,13.90
2018-09-24T05:45:40.784Z,13.60
2018-09-24T05:47:49.655Z,13.50
2018-09-24T05:49:58.499Z,13.60
2018-09-24T05:52:07.393Z,13.80
2018-09-24T05:54:16.092Z,13.60
2018-09-24T05:56:25.272Z,13.50
2018-09-24T05:58:34.047Z,13.50
2018-09-24T06:00:42.956Z,13.60
2018-09-24T06:02:51.866Z,13.60
2018-09-24T06:05:00.726Z,13.70
2018-09-24T06:07:09.364Z,13.80
2018-09-24T06:09:18.375Z,14.00
2018-09-24T06:11:27.316Z,13.90
2018-09-24T06:13:36.301Z,13.30
2018-09-24T06:15:45.081Z,12.90
2018-09-24T06:17:54.163Z,12.90
2018-09-24T06:20:02.943Z,13.30
2018-09-24T06:22:11.929Z,13.00
2018-09-24T06:24:20.813Z,12.20
2018-09-24T06:26:29.437Z,11.10
2018-09-24T06:28:38.168Z,11.40
2018-09-24T06:30:46.952Z,11.90
2018-09-24T06:32:55.920Z,12.60
2018-09-24T06:35:04.626Z,11.40
2018-09-24T06:37:13.436Z,11.40
2018-09-24T06:39:22.166Z,11.30
2018-09-24T06:41:31.484Z,10.10
2018-09-24T06:43:40.392Z,10.50
2018-09-24T06:45:49.394Z,10.70
2018-09-24T06:47:58.101Z,10.90
2018-09-24T06:50:06.900Z,11.00
2018-09-24T06:52:15.760Z,11.60
2018-09-24T06:54:24.386Z,11.40
2018-09-24T06:56:33.114Z,11.70
2018-09-24T06:58:41.770Z,11.60
2018-09-24T07:00:50.520Z,11.10
2018-09-24T07:02:59.233Z,11.00
2018-09-24T07:05:08.030Z,11.70
2018-09-24T07:07:16.688Z,12.10
2018-09-24T07:09:25.659Z,11.40
2018-09-24T07:11:34.407Z,10.90
2018-09-24T07:13:43.694Z,11.30
2018-09-24T07:15:52.461Z,11.70
2018-09-24T07:18:01.369Z,12.50
2018-09-24T07:20:10.266Z,12.50
2018-09-24T07:22:19.043Z,11.20
2018-09-24T07:24:27.956Z,11.00
2018-09-24T07:26:36.931Z,11.00
2018-09-24T07:28:45.962Z,10.80
2018-09-24T07:30:54.860Z,10.30
2018-09-24T07:33:03.672Z,11.30
2018-09-24T07:35:12.501Z,11.40
2018-09-24T07:37:21.191Z,11.50
2018-09-24T07:39:30.068Z,11.30
2018-09-24T07:41:38.906Z,11.10
2018-09-24T07:43:47.657Z,10.80
2018-09-24T07:45:56.579Z,10.30
2018-09-24T07:48:05.251Z,10.90
2018-09-24T07:50:14.350Z,11.20
2018-09-24T07:52:23.288Z,11.40
2018-09-24T07:54:32.264Z,11.80
2018-09-24T07:56:41.388Z,12.30
2018-09-24T07:58:50.084Z,11.20
2018-09-24T08:00:59.039Z,11.80
2018-09-24T08:03:07.705Z,11.40
2018-09-24T08:05:16.475Z,11.50
2018-09-24T08:07:25.381Z,10.90
2018-09-24T08:09:34.179Z,11.00
2018-09-24T08:11:43.135Z,11.20
2018-09-24T08:13:52.076Z,11.20
2018-09-24T08:16:00.840Z,10.90
2018-09-24T08:18:09.735Z,11.50
2018-09-24T08:20:18.712Z,10.20
2018-09-24T08:22:27.468Z,10.20
2018-09-24T08:24:36.072Z,10.90
2018-09-24T08:26:45.131Z,10.70
2018-09-24T08:28:53.889Z,11.20
2018-09-24T08:31:02.917Z,11.20
2018-09-24T08:33:11.975Z,10.90
2018-09-24T08:35:20.792Z,11.40
2018-09-24T08:37:29.755Z,11.40
2018-09-24T08:39:38.596Z,11.80
2018-09-24T08:41:47.469Z,11.60
2018-09-24T08:43:56.319Z,11.70
2018-09-24T08:46:05.137Z,11.10
2018-09-24T08:48:13.977Z,11.30
2018-09-24T08:50:22.923Z,11.50
2018-09-24T08:52:31.638Z,12.00
2018-09-24T08:54:40.420Z,11.50
2018-09-24T08:56:49.229Z,11.70
2018-09-24T08:58:57.839Z,12.50
2018-09-24T09:01:06.839Z,12.40
2018-09-24T09:03:15.705Z,12.20
2018-09-24T09:05:24.628Z,11.30
2018-09-24T09:07:33.579Z,11.70
2018-09-24T09:09:42.353Z,11.80
2018-09-24T09:11:51.357Z,11.50
2018-09-24T09:14:00.296Z,11.30
2018-09-24T09:16:08.957Z,11.10
2018-09-24T09:18:17.680Z,11.40
2018-09-24T09:20:26.519Z,10.70
2018-09-24T09:22:35.480Z,10.80
2018-09-24T09:24:44.372Z,11.00
2018-09-24T09:26:53.077Z,11.50
2018-09-24T09:29:02.087Z,11.60
2018-09-24T09:31:10.933Z,12.00
2018-09-24T09:33:19.854Z,11.60
2018-09-24T09:35:28.587Z,11.60
2018-09-24T09:37:37.519Z,11.20
2018-09-24T09:39:46.357Z,11.90
2018-09-24T09:41:55.069Z,11.60
2018-09-24T09:44:03.975Z,11.90
2018-09-24T09:46:12.812Z,12.50
2018-09-24T09:48:21.604Z,12.00
2018-09-24T09:50:30.339Z,12.40
2018-09-24T09:52:39.117Z,12.20
2018-09-24T09:54:47.960Z,12.60
2018-09-24T09:56:56.876Z,12.70
2018-09-24T09:59:05.724Z,13.00
2018-09-24T10:01:14.767Z,13.20
2018-09-24T10:03:23.741Z,13.00
2018-09-24T10:05:32.484Z,12.40
2018-09-24T10:07:41.471Z,12.60
2018-09-24T10:09:50.476Z,12.30
2018-09-24T10:11:59.416Z,11.90
2018-09-24T10:14:08.259Z,12.60
2018-09-24T10:16:17.067Z,12.60
2018-09-24T10:18:25.928Z,12.90
2018-09-24T10:20:34.706Z,12.70
2018-09-24T10:22:43.708Z,13.00
2018-09-24T10:24:52.623Z,13.70
2018-09-24T10:27:01.271Z,14.10
2018-09-24T10:29:10.266Z,14.30
2018-09-24T10:31:18.900Z,13.30
2018-09-24T10:33:27.902Z,12.00
2018-09-24T10:35:36.816Z,12.10
2018-09-24T10:37:45.575Z,12.40
2018-09-24T10:39:54.336Z,12.70
2018-09-24T10:42:03.178Z,12.60
2018-09-24T10:44:12.386Z,12.00
2018-09-24T10:46:21.391Z,12.60
2018-09-24T10:48:30.272Z,13.20
2018-09-24T10:50:39.014Z,13.30
2018-09-24T10:52:47.716Z,13.90
2018-09-24T10:54:56.418Z,13.30
2018-09-24T10:57:05.456Z,14.10
2018-09-24T10:59:14.318Z,13.60
2018-09-24T11:01:23.072Z,13.70
2018-09-24T11:03:31.786Z,13.10
2018-09-24T11:05:40.495Z,13.00
2018-09-24T11:07:49.376Z,13.70
2018-09-24T11:09:58.423Z,13.10
2018-09-24T11:12:07.140Z,13.40
2018-09-24T11:14:15.936Z,13.30
2018-09-24T11:16:24.828Z,13.70
2018-09-24T11:18:33.579Z,14.20
2018-09-24T11:20:42.309Z,13.40
2018-09-24T11:22:51.263Z,13.30
2018-09-24T11:25:00.194Z,13.40
2018-09-24T11:27:09.091Z,13.20
2018-09-24T11:29:18.036Z,13.60
2018-09-24T11:31:26.832Z,13.80
2018-09-24T11:33:35.702Z,14.40
2018-09-24T11:35:44.479Z,14.60
2018-09-24T11:37:53.232Z,14.30
2018-09-24T11:40:02.160Z,14.50
2018-09-24T11:42:10.943Z,15.30
2018-09-24T11:44:19.934Z,15.60
2018-09-24T11:46:29.018Z,15.60
2018-09-24T11:48:37.884Z,14.70
2018-09-24T11:50:46.942Z,14.60
2018-09-24T11:52:55.592Z,13.60
2018-09-24T11:55:04.355Z,13.60
2018-09-24T11:57:13.277Z,13.60
2018-09-24T11:59:22.176Z,14.30
2018-09-24T12:01:30.987Z,14.80
2018-09-24T12:03:39.928Z,14.40
2018-09-24T12:05:48.937Z,14.50
2018-09-24T12:07:57.563Z,14.60
2018-09-24T12:10:06.367Z,15.00
2018-09-24T12:12:15.122Z,14.30
2018-09-24T12:14:23.755Z,14.10
2018-09-24T12:16:32.556Z,14.30
2018-09-24T12:18:41.452Z,14.60
2018-09-24T12:20:50.255Z,14.70
2018-09-24T12:22:59.063Z,15.00
2018-09-24T12:25:07.865Z,14.90
2018-09-24T12:27:16.698Z,15.20
2018-09-24T12:29:25.542Z,14.60
2018-09-24T12:31:34.275Z,14.60
2018-09-24T12:33:43.142Z,15.00
2018-09-24T12:35:52.198Z,15.20
2018-09-24T12:38:00.964Z,15.10
2018-09-24T12:40:09.920Z,15.20
2018-09-24T12:42:18.833Z,15.60
2018-09-24T12:44:27.739Z,15.70
2018-09-24T12:46:36.664Z,16.30
2018-09-24T12:48:45.584Z,16.00
2018-09-24T12:50:54.567Z,15.90
2018-09-24T12:53:03.566Z,15.90
2018-09-24T12:55:12.534Z,15.20
2018-09-24T12:57:21.344Z,14.40
2018-09-24T12:59:30.172Z,14.80
2018-09-24T13:01:38.896Z,15.40
2018-09-24T13:03:47.613Z,15.30
2018-09-24T13:05:56.414Z,15.20
2018-09-24T13:08:05.315Z,15.50
2018-09-24T13:10:14.227Z,15.70
2018-09-24T13:12:23.039Z,16.00
2018-09-24T13:14:32.007Z,16.00
2018-09-24T13:16:40.952Z,15.90
2018-09-24T13:18:50.043Z,15.80
2018-09-24T13:20:58.936Z,15.40
2018-09-24T13:23:07.724Z,15.50
2018-09-24T13:25:16.572Z,15.80
2018-09-24T13:27:25.483Z,16.00
2018-09-24T13:29:34.643Z,16.10
2018-09-24T13:31:43.480Z,15.70
2018-09-24T13:33:52.230Z,15.60
2018-09-24T13:36:01.200Z,16.00
2018-09-24T13:38:10.073Z,16.40
2018-09-24T13:40:18.931Z,16.80
2018-09-24T13:42:27.823Z,16.50
2018-09-24T13:44:36.545Z,16.50
2018-09-24T13:46:45.555Z,16.60
2018-09-24T13:48:54.431Z,15.60
2018-09-24T13:51:03.427Z,15.30
2018-09-24T13:53:12.421Z,14.30
2018-09-24T13:55:27.913Z,14.80
2018-09-24T13:57:36.850Z,14.60
2018-09-24T13:59:45.593Z,14.90
2018-09-24T14:01:54.378Z,14.30
2018-09-24T14:04:03.340Z,14.30
2018-09-24T14:06:12.272Z,14.80
2018-09-24T14:08:21.193Z,14.70
2018-09-24T14:10:30.234Z,15.20
2018-09-24T14:12:39.195Z,15.50
2018-09-24T14:14:48.108Z,16.10
2018-09-24T14:16:56.962Z,15.10
2018-09-24T14:19:05.945Z,15.20
2018-09-24T14:21:14.860Z,16.00
2018-09-24T14:23:23.649Z,16.20
2018-09-24T14:25:32.420Z,16.00
2018-09-24T14:27:42.046Z,16.00
2018-09-24T14:29:50.654Z,16.40
2018-09-24T14:31:59.576Z,16.80
2018-09-24T14:34:08.709Z,16.70
2018-09-24T14:36:17.652Z,16.80
2018-09-24T14:38:26.560Z,17.00
2018-09-24T14:40:35.500Z,17.00
2018-09-24T14:42:44.259Z,16.60
2018-09-24T14:44:53.081Z,16.60
2018-09-24T14:47:01.936Z,16.10
2018-09-24T14:49:10.856Z,16.00
2018-09-24T14:51:19.668Z,16.30
2018-09-24T14:53:28.473Z,15.70
2018-09-24T14:55:37.472Z,15.20
2018-09-24T14:57:46.463Z,14.70
2018-09-24T14:59:55.132Z,14.30
2018-09-24T15:02:03.835Z,13.90
2018-09-24T15:04:12.847Z,13.60
2018-09-24T15:06:21.846Z,13.80
2018-09-24T15:08:30.748Z,14.10
2018-09-24T15:10:39.827Z,14.10
2018-09-24T15:12:48.648Z,14.50
2018-09-24T15:14:57.735Z,14.20
2018-09-24T15:17:06.551Z,14.40
2018-09-24T15:19:15.184Z,14.80
2018-09-24T15:21:24.018Z,14.70
2018-09-24T15:23:32.990Z,14.50
2018-09-24T15:25:41.899Z,15.20
2018-09-24T15:27:50.612Z,15.40
2018-09-24T15:29:59.397Z,15.70
2018-09-24T15:32:08.216Z,15.70
2018-09-24T15:34:17.141Z,15.50
2018-09-24T15:36:25.932Z,14.90
2018-09-24T15:38:35.031Z,15.30
2018-09-24T15:40:43.913Z,15.50
2018-09-24T15:42:52.759Z,15.90
2018-09-24T15:45:01.578Z,15.70
2018-09-24T15:47:10.399Z,14.80
2018-09-24T15:49:19.320Z,14.80
2018-09-24T15:51:28.517Z,13.60
2018-09-24T15:53:37.355Z,15.40
2018-09-24T15:55:46.206Z,15.90
2018-09-24T15:57:54.948Z,16.20
2018-09-24T16:00:03.783Z,16.40
2018-09-24T16:02:12.453Z,16.40
2018-09-24T16:04:21.368Z,16.30
2018-09-24T16:06:30.259Z,16.30
2018-09-24T16:08:39.094Z,15.80
2018-09-24T16:10:47.847Z,16.60
2018-09-24T16:12:56.619Z,16.90
2018-09-24T16:15:05.529Z,16.80
2018-09-24T16:17:14.316Z,15.90
2018-09-24T16:19:23.236Z,16.10
2018-09-24T16:21:32.013Z,16.70
2018-09-24T16:23:40.684Z,16.70
2018-09-24T16:25:49.394Z,16.70
2018-09-24T16:27:58.136Z,16.40
2018-09-24T16:30:07.154Z,16.70
2018-09-24T16:32:15.952Z,16.80
2018-09-24T16:34:24.892Z,17.20
2018-09-24T16:36:34.013Z,17.00
2018-09-24T16:38:42.826Z,16.80
2018-09-24T16:40:51.584Z,17.10
2018-09-24T16:43:00.412Z,17.20
2018-09-24T16:45:09.204Z,17.30
2018-09-24T16:47:18.001Z,17.50
2018-09-24T16:49:27.156Z,17.70
2018-09-24T16:51:36.062Z,17.80
2018-09-24T16:53:45.084Z,17.70
2018-09-24T16:55:53.947Z,17.60
2018-09-24T16:58:02.870Z,17.60
2018-09-24T17:02:28.605Z,17.60
2018-09-24T17:04:37.423Z,17.50
2018-09-24T17:06:46.350Z,17.50
2018-09-24T17:08:55.090Z,17.50
2018-09-24T17:11:04.039Z,17.50
2018-09-24T17:13:13.081Z,17.40
2018-09-24T17:15:22.104Z,17.30
2018-09-24T17:17:31.004Z,17.30
2018-09-24T17:19:39.831Z,17.20
2018-09-24T17:25:00.564Z,17.20
2018-09-24T17:27:09.492Z,16.80
2018-09-24T17:29:18.323Z,16.80
2018-09-24T17:31:27.240Z,16.80
2018-09-24T17:33:36.343Z,16.80
2018-09-24T17:35:45.132Z,16.80
2018-09-24T17:37:54.088Z,16.70
2018-09-24T17:40:02.875Z,16.70
2018-09-24T17:42:11.892Z,16.60
2018-09-24T17:44:20.783Z,16.50
2018-09-24T17:46:29.899Z,16.40
2018-09-24T17:48:38.888Z,16.30
2018-09-24T17:50:47.610Z,16.30
2018-09-24T17:52:56.647Z,16.30
2018-09-24T17:55:05.403Z,16.20
2018-09-24T17:57:14.215Z,16.20
2018-09-24T17:59:23.009Z,16.20
2018-09-24T18:01:31.678Z,16.20
2018-09-24T18:03:40.353Z,16.20
2018-09-24T18:05:49.326Z,16.20
2018-09-24T18:07:58.211Z,16.10
2018-09-24T18:10:07.021Z,16.00
2018-09-24T18:12:15.783Z,15.90
2018-09-24T18:14:24.789Z,15.80
2018-09-24T18:16:33.830Z,15.50
2018-09-24T18:18:42.637Z,15.30
2018-09-24T18:20:51.458Z,15.20
2018-09-24T18:23:00.349Z,15.20
2018-09-24T18:25:09.393Z,15.30
2018-09-24T18:27:18.232Z,15.30
2018-09-24T18:29:27.206Z,15.00
2018-09-24T18:31:36.166Z,15.10
2018-09-24T18:33:44.983Z,15.10
2018-09-24T18:35:53.785Z,15.20
2018-09-24T18:38:02.608Z,15.30
2018-09-24T18:40:11.583Z,15.40
2018-09-24T18:42:20.547Z,15.40
2018-09-24T18:44:29.450Z,15.30
2018-09-24T18:46:38.422Z,15.10
2018-09-24T18:48:47.514Z,15.20
2018-09-24T18:50:56.415Z,15.30
2018-09-24T18:53:05.500Z,15.20
2018-09-24T18:55:14.502Z,14.50
2018-09-24T18:57:23.406Z,13.50
2018-09-24T18:59:32.230Z,13.30
2018-09-24T19:01:41.059Z,13.10
2018-09-24T19:03:50.011Z,13.50
2018-09-24T19:05:58.980Z,13.70
2018-09-24T19:08:07.843Z,13.90
2018-09-24T19:10:16.617Z,14.00
2018-09-24T19:12:25.601Z,14.00
2018-09-24T19:14:34.423Z,13.90
2018-09-24T19:16:43.188Z,14.00
2018-09-24T19:18:52.092Z,14.10
2018-09-24T19:21:00.937Z,15.10
2018-09-24T19:23:09.914Z,14.40
2018-09-24T19:25:18.613Z,14.50
2018-09-24T19:27:27.385Z,14.50
2018-09-24T19:29:36.339Z,14.60
2018-09-24T19:31:45.302Z,14.60
2018-09-24T19:33:54.008Z,14.60
2018-09-24T19:36:03.055Z,14.60
2018-09-24T19:38:12.109Z,14.20
2018-09-24T19:40:21.072Z,13.80
2018-09-24T19:42:30.039Z,12.70
2018-09-24T19:44:39.136Z,12.60
2018-09-24T19:46:48.215Z,12.60
2018-09-24T19:48:57.148Z,12.40
2018-09-24T19:51:06.176Z,12.40
2018-09-24T19:53:15.172Z,12.60
2018-09-24T19:55:23.997Z,12.90
2018-09-24T19:57:32.807Z,13.20
2018-09-24T19:59:41.848Z,13.30
2018-09-24T20:01:50.845Z,13.30
2018-09-24T20:03:59.660Z,13.30
2018-09-24T20:06:08.584Z,13.30
2018-09-24T20:08:17.290Z,13.10
2018-09-24T20:10:26.158Z,13.20
2018-09-24T20:12:35.068Z,13.40
2018-09-24T20:14:43.845Z,13.40
2018-09-24T20:16:52.700Z,13.50
2018-09-24T20:19:01.482Z,13.50
2018-09-24T20:21:10.470Z,13.60
2018-09-24T20:23:19.219Z,13.40
2018-09-24T20:25:28.224Z,13.00
2018-09-24T20:27:37.104Z,13.10
2018-09-24T20:29:45.926Z,13.10
2018-09-24T20:31:54.688Z,12.90
2018-09-24T20:34:03.473Z,12.80
2018-09-24T20:36:12.417Z,12.80
2018-09-24T20:38:21.430Z,12.70
2018-09-24T20:40:30.283Z,12.90
2018-09-24T20:42:38.963Z,12.90
2018-09-24T20:44:47.824Z,12.90
2018-09-24T20:46:56.744Z,13.00
2018-09-24T20:49:05.933Z,13.00
2018-09-24T20:51:14.843Z,13.10
2018-09-24T20:53:23.956Z,13.20
2018-09-24T20:55:32.824Z,13.30
2018-09-24T20:57:41.787Z,12.80
2018-09-24T20:59:50.464Z,13.10
2018-09-24T21:01:59.384Z,13.30
2018-09-24T21:04:08.251Z,13.40
2018-09-24T21:06:17.027Z,13.50
2018-09-24T21:08:25.947Z,13.50
2018-09-24T21:10:34.655Z,13.20
2018-09-24T21:12:43.679Z,12.70
2018-09-24T21:14:52.575Z,12.50
2018-09-24T21:17:01.399Z,12.10
2018-09-24T21:19:10.402Z,12.30
2018-09-24T21:21:19.450Z,11.90
2018-09-24T21:23:28.290Z,12.10
2018-09-24T21:25:37.288Z,12.20
2018-09-24T21:27:46.187Z,14.20
2018-09-24T21:29:55.310Z,12.50
2018-09-24T21:32:04.284Z,12.60
2018-09-24T21:34:12.962Z,12.70
2018-09-24T21:36:22.032Z,12.80
2018-09-24T21:38:30.758Z,12.90
2018-09-24T21:40:39.683Z,13.00
2018-09-24T21:42:48.600Z,13.00
2018-09-24T21:44:57.473Z,13.00
2018-09-24T21:47:06.364Z,13.00
2018-09-24T21:49:15.062Z,13.00
2018-09-24T21:51:24.057Z,13.00
2018-09-24T21:53:33.015Z,13.00
2018-09-24T21:55:41.904Z,12.70
2018-09-24T21:57:50.748Z,12.50
2018-09-24T21:59:59.735Z,12.20
2018-09-24T22:02:08.557Z,12.00
2018-09-24T22:04:17.612Z,11.90
2018-09-24T22:06:26.537Z,11.80
2018-09-24T22:08:35.319Z,11.30
2018-09-24T22:10:44.204Z,11.60
2018-09-24T22:12:52.984Z,11.90
2018-09-24T22:15:01.904Z,11.90
2018-09-24T22:17:11.060Z,11.90
2018-09-24T22:19:19.792Z,12.00
2018-09-24T22:21:28.597Z,12.20
2018-09-24T22:23:37.435Z,11.80
2018-09-24T22:25:46.434Z,10.90
2018-09-24T22:27:55.174Z,10.30
2018-09-24T22:30:04.102Z,10.60
2018-09-24T22:32:12.817Z,11.10
2018-09-24T22:34:21.941Z,11.50
2018-09-24T22:36:30.871Z,11.50
2018-09-24T22:38:39.666Z,11.50
2018-09-24T22:40:48.513Z,11.30
2018-09-24T22:42:57.505Z,10.90
2018-09-24T22:45:06.428Z,11.30
2018-09-24T22:47:15.322Z,11.10
2018-09-24T22:49:24.154Z,11.40
2018-09-24T22:51:32.983Z,11.10
2018-09-24T22:53:41.673Z,11.30
2018-09-24T22:55:50.640Z,11.60
2018-09-24T22:57:59.420Z,11.80
2018-09-24T23:00:08.352Z,11.60
2018-09-24T23:02:17.252Z,11.60
2018-09-24T23:04:26.276Z,11.70
2018-09-24T23:06:35.379Z,11.80
2018-09-24T23:08:44.252Z,11.90
2018-09-24T23:10:53.211Z,12.10
2018-09-24T23:13:02.308Z,12.20
2018-09-24T23:15:11.194Z,12.10
2018-09-24T23:17:20.220Z,11.80
2018-09-24T23:19:28.975Z,11.80
2018-09-24T23:21:37.897Z,11.50
2018-09-24T23:23:46.812Z,11.40
2018-09-24T23:25:55.754Z,11.00
2018-09-24T23:28:04.411Z,10.90
2018-09-24T23:30:13.080Z,11.10
2018-09-24T23:32:21.825Z,11.40
2018-09-24T23:34:30.673Z,11.60
2018-09-24T23:36:39.618Z,11.70
2018-09-24T23:38:49.108Z,11.50
2018-09-24T23:40:57.872Z,11.40
2018-09-24T23:43:06.541Z,11.20
2018-09-24T23:45:15.228Z,11.50
2018-09-24T23:47:23.920Z,11.70
2018-09-24T23:49:32.599Z,11.70
2018-09-24T23:51:41.639Z,11.60
2018-09-24T23:53:50.721Z,11.70
2018-09-24T23:55:59.700Z,11.50
2018-09-24T23:58:08.736Z,11.70
